Forside
METAR-TAF:

METAR-TAF

Lufthavne :

Decorah Municipal Airport

Decorah, Iowa, USA

Breddekreds: 43-17N, længdekreds: 091-44W, højde: 353 m

Aktuelle vejr

Denne rapport blev lavet for 12 minutter siden, kl. 13:35 UTC
Vind 4 kt fra nordøst
Temperatur 7°C
Fugtighed 49%
Tryk 1029 hPa
Sigt: 16.1 km

METAR: KDEH 111335Z AUTO 04004KT 10SM 07/M03 A3038 RMK AO2

Tid: 08:47 (13:47 UTC)


TAF: fraværende

Vejrobservationer og prognoser fra mere end 4000 lufthavne (METAR og TAF).

De gule og røde prikker repræsenterer de meteorologiske stationer.

Flyt musen over at se navnet på stationen.

Så klik over at se vejr observationer og prognoser.

At skifte det kort: Klik på de grønne knapper med et sort kors for at zoome ind; på den grønne knap med en bindestreg for at zoome ud; eller på de grønne pile for tilstødende kort.


METAR-TAF: